createdAt,value
2022-10-16T00:01:21.287Z,62.44
2022-10-16T00:03:49.185Z,61.63
2022-10-16T00:06:17.938Z,61.78
2022-10-16T00:08:44.756Z,62.00
2022-10-16T00:11:16.036Z,62.92
2022-10-16T00:13:44.587Z,63.36
2022-10-16T00:16:13.217Z,62.39
2022-10-16T00:18:40.159Z,61.88
2022-10-16T00:21:34.300Z,61.34
2022-10-16T00:24:06.743Z,61.08
2022-10-16T00:26:35.268Z,60.53
2022-10-16T00:29:02.081Z,59.94
2022-10-16T00:31:29.803Z,59.43
2022-10-16T00:33:56.557Z,59.53
2022-10-16T00:36:26.140Z,59.63
2022-10-16T00:38:55.672Z,60.25
2022-10-16T00:41:24.559Z,61.32
2022-10-16T00:43:53.924Z,61.73
2022-10-16T00:46:30.162Z,60.76
2022-10-16T00:49:05.531Z,60.88
2022-10-16T00:51:38.345Z,60.20
2022-10-16T00:54:09.775Z,60.68
2022-10-16T00:56:36.439Z,60.96
2022-10-16T00:59:08.589Z,61.89
2022-10-16T01:01:35.281Z,62.20
2022-10-16T01:04:01.889Z,63.15
2022-10-16T01:06:50.332Z,62.82
2022-10-16T01:09:27.474Z,63.60
2022-10-16T01:12:07.130Z,64.19
2022-10-16T01:15:00.821Z,64.13
2022-10-16T01:17:39.482Z,64.15
2022-10-16T01:20:27.888Z,63.13
2022-10-16T01:23:08.856Z,62.24
2022-10-16T01:25:56.474Z,62.39
2022-10-16T01:28:34.044Z,61.24
2022-10-16T01:31:02.727Z,60.78
2022-10-16T01:36:34.098Z,60.49
2022-10-16T01:39:03.486Z,62.73
2022-10-16T01:41:52.913Z,64.48
2022-10-16T01:44:29.586Z,65.01
2022-10-16T01:46:56.959Z,64.58
2022-10-16T01:49:27.513Z,63.64
2022-10-16T01:54:33.758Z,62.32
2022-10-16T01:58:12.798Z,61.37
2022-10-16T02:00:42.874Z,61.50
2022-10-16T02:03:12.233Z,61.96
2022-10-16T02:05:45.939Z,62.15
2022-10-16T02:08:13.437Z,62.58
2022-10-16T02:10:40.227Z,62.91
2022-10-16T02:13:21.178Z,62.25
2022-10-16T02:15:47.994Z,62.50
2022-10-16T02:18:15.684Z,62.19
2022-10-16T02:20:53.972Z,61.55
2022-10-16T02:23:41.426Z,61.41
2022-10-16T02:26:11.372Z,60.66
2022-10-16T02:28:53.363Z,61.52
2022-10-16T02:31:28.521Z,60.99
2022-10-16T02:33:58.979Z,60.57
2022-10-16T02:36:27.222Z,60.40
2022-10-16T02:38:55.065Z,60.17
2022-10-16T02:41:23.296Z,59.97
2022-10-16T02:43:50.572Z,60.84
2022-10-16T02:46:18.555Z,60.94
2022-10-16T02:48:45.211Z,61.37
2022-10-16T02:51:11.823Z,61.22
2022-10-16T02:53:38.354Z,61.97
2022-10-16T02:56:05.179Z,61.56
2022-10-16T02:58:31.760Z,62.42
2022-10-16T03:00:58.411Z,64.09
2022-10-16T03:03:25.047Z,63.54
2022-10-16T03:05:51.726Z,63.69
2022-10-16T03:08:18.554Z,65.38
2022-10-16T03:10:45.159Z,65.11
2022-10-16T03:13:11.758Z,64.00
2022-10-16T03:15:38.327Z,62.93
2022-10-16T03:18:05.049Z,63.65
2022-10-16T03:20:31.625Z,63.85
2022-10-16T03:22:58.283Z,62.59
2022-10-16T03:25:24.836Z,62.66
2022-10-16T03:27:51.398Z,62.83
2022-10-16T03:30:18.037Z,62.61
2022-10-16T03:32:47.955Z,63.84
2022-10-16T03:35:14.630Z,63.98
2022-10-16T03:37:41.194Z,64.05
2022-10-16T03:40:08.331Z,63.96
2022-10-16T03:42:34.880Z,63.08
2022-10-16T03:45:01.615Z,62.76
2022-10-16T03:47:28.449Z,62.64
2022-10-16T03:49:55.309Z,61.17
2022-10-16T03:52:21.912Z,62.79
2022-10-16T03:54:48.508Z,62.06
2022-10-16T03:57:15.163Z,61.68
2022-10-16T03:59:41.783Z,62.19
2022-10-16T04:02:08.384Z,62.52
2022-10-16T04:04:35.198Z,62.71
2022-10-16T04:07:01.949Z,62.71
2022-10-16T04:09:28.557Z,63.86
2022-10-16T04:11:55.271Z,65.03
2022-10-16T04:14:21.902Z,64.91
2022-10-16T04:16:48.511Z,64.97
2022-10-16T04:19:15.160Z,65.26
2022-10-16T04:21:41.759Z,65.12
2022-10-16T04:24:08.404Z,64.03
2022-10-16T04:26:34.998Z,63.55
2022-10-16T04:29:01.643Z,63.97
2022-10-16T04:31:28.299Z,64.30
2022-10-16T04:33:54.852Z,63.31
2022-10-16T04:36:24.254Z,62.52
2022-10-16T04:38:53.473Z,62.23
2022-10-16T04:41:20.067Z,63.37
2022-10-16T04:43:46.739Z,63.98
2022-10-16T04:46:13.512Z,64.58
2022-10-16T04:48:40.063Z,64.86
2022-10-16T04:51:06.830Z,64.60
2022-10-16T04:53:34.385Z,64.56
2022-10-16T04:56:01.045Z,63.87
2022-10-16T04:58:27.595Z,63.66
2022-10-16T05:00:54.948Z,64.12
2022-10-16T05:03:22.321Z,64.20
2022-10-16T05:05:49.204Z,63.34
2022-10-16T05:08:16.976Z,63.34
2022-10-16T05:10:44.869Z,63.36
2022-10-16T05:13:12.390Z,63.38
2022-10-16T05:15:38.982Z,63.79
2022-10-16T05:18:05.666Z,63.33
2022-10-16T05:20:34.208Z,62.98
2022-10-16T05:23:00.950Z,62.72
2022-10-16T05:25:27.549Z,63.70
2022-10-16T05:27:54.233Z,63.98
2022-10-16T05:30:21.267Z,64.40
2022-10-16T05:32:49.826Z,63.80
2022-10-16T05:35:17.793Z,63.18
2022-10-16T05:37:44.522Z,63.21
2022-10-16T05:40:11.993Z,63.44
2022-10-16T05:42:38.640Z,62.97
2022-10-16T05:45:07.178Z,63.13
2022-10-16T05:47:33.867Z,63.58
2022-10-16T05:50:00.443Z,64.36
2022-10-16T05:52:28.482Z,64.40
2022-10-16T05:54:55.062Z,65.09
2022-10-16T05:57:21.928Z,65.35
2022-10-16T05:59:48.492Z,65.38
2022-10-16T06:02:15.199Z,65.58
2022-10-16T06:04:42.118Z,65.88
2022-10-16T06:07:08.929Z,66.34
2022-10-16T06:09:35.544Z,65.72
2022-10-16T06:12:02.584Z,65.55
2022-10-16T06:14:29.194Z,65.49
2022-10-16T06:16:55.791Z,64.95
2022-10-16T06:19:22.518Z,64.33
2022-10-16T06:21:49.101Z,64.33
2022-10-16T06:24:15.746Z,63.82
2022-10-16T06:26:42.300Z,63.35
2022-10-16T06:29:09.868Z,63.61
2022-10-16T06:31:36.490Z,63.50
2022-10-16T06:34:04.361Z,64.38
2022-10-16T06:36:31.178Z,63.83
2022-10-16T06:38:57.755Z,64.25
2022-10-16T06:41:24.549Z,63.02
2022-10-16T06:43:51.841Z,63.28
2022-10-16T06:46:21.517Z,65.15
2022-10-16T06:48:48.392Z,63.17
2022-10-16T06:51:25.115Z,62.81
2022-10-16T06:54:04.986Z,61.69
2022-10-16T06:56:34.422Z,62.34
2022-10-16T06:59:02.075Z,62.08
2022-10-16T07:01:29.476Z,61.84
2022-10-16T07:03:56.237Z,61.30
2022-10-16T07:06:25.217Z,62.39
2022-10-16T07:08:52.357Z,62.13
2022-10-16T07:11:21.818Z,62.44
2022-10-16T07:13:52.964Z,61.09
2022-10-16T07:16:25.903Z,61.05
2022-10-16T07:18:58.561Z,60.78
2022-10-16T07:21:26.951Z,60.43
2022-10-16T07:23:59.020Z,59.35
2022-10-16T07:26:27.264Z,59.64
2022-10-16T07:28:53.952Z,58.61
2022-10-16T07:31:21.685Z,59.12
2022-10-16T07:33:49.291Z,59.28
2022-10-16T07:36:18.853Z,59.54
2022-10-16T07:38:46.889Z,59.90
2022-10-16T07:41:16.425Z,59.28
2022-10-16T07:43:53.955Z,60.27
2022-10-16T07:46:23.097Z,61.04
2022-10-16T07:48:50.161Z,60.29
2022-10-16T07:51:19.700Z,59.31
2022-10-16T07:53:47.012Z,58.06
2022-10-16T07:56:13.705Z,57.01
2022-10-16T07:58:40.464Z,57.39
2022-10-16T08:01:09.732Z,58.50
2022-10-16T08:03:37.012Z,57.56
2022-10-16T08:06:04.470Z,58.46
2022-10-16T08:08:31.492Z,56.72
2022-10-16T08:10:58.154Z,58.17
2022-10-16T08:13:24.986Z,58.39
2022-10-16T08:15:51.558Z,59.43
2022-10-16T08:18:18.262Z,57.44
2022-10-16T08:20:44.841Z,57.30
2022-10-16T08:23:14.726Z,57.22
2022-10-16T08:25:42.345Z,55.47
2022-10-16T08:28:10.945Z,55.28
2022-10-16T08:30:38.028Z,54.71
2022-10-16T08:33:05.023Z,55.02
2022-10-16T08:35:31.627Z,54.84
2022-10-16T08:37:58.282Z,53.98
2022-10-16T08:40:33.720Z,53.98
2022-10-16T08:43:19.228Z,53.28
2022-10-16T08:46:06.998Z,52.37
2022-10-16T08:48:51.664Z,52.63
2022-10-16T08:51:24.771Z,52.80
2022-10-16T08:53:51.268Z,52.49
2022-10-16T08:56:19.506Z,52.42
2022-10-16T09:01:23.977Z,52.47
2022-10-16T09:04:33.655Z,52.36
2022-10-16T09:07:32.318Z,51.34
2022-10-16T09:10:16.795Z,48.71
2022-10-16T09:13:10.653Z,49.25
2022-10-16T09:15:51.739Z,48.10
2022-10-16T09:18:30.139Z,47.26
2022-10-16T09:21:19.284Z,48.05
2022-10-16T09:23:46.230Z,47.31
2022-10-16T09:26:15.124Z,46.70
2022-10-16T09:28:42.159Z,45.56
2022-10-16T09:31:19.344Z,45.55
2022-10-16T09:33:51.453Z,45.22
2022-10-16T09:36:18.945Z,44.70
2022-10-16T09:38:45.520Z,44.35
2022-10-16T09:41:22.198Z,44.14
2022-10-16T09:43:59.964Z,44.10
2022-10-16T09:46:36.359Z,43.42
2022-10-16T09:49:21.912Z,43.80
2022-10-16T09:51:48.554Z,43.71
2022-10-16T09:54:20.405Z,43.50
2022-10-16T09:56:50.275Z,43.52
2022-10-16T09:59:19.251Z,43.35
2022-10-16T10:01:49.092Z,43.24
2022-10-16T10:04:16.358Z,43.38
2022-10-16T10:06:49.332Z,41.25
2022-10-16T10:09:26.917Z,42.31
2022-10-16T10:12:04.047Z,41.84
2022-10-16T10:14:41.089Z,41.65
2022-10-16T10:17:07.644Z,40.98
2022-10-16T10:19:49.337Z,39.92
2022-10-16T10:22:33.954Z,41.11
2022-10-16T10:25:12.663Z,39.51
2022-10-16T10:27:58.623Z,40.87
2022-10-16T10:30:51.257Z,41.59
2022-10-16T10:33:42.368Z,39.97
2022-10-16T10:36:41.846Z,39.75
2022-10-16T10:39:43.190Z,39.02
2022-10-16T10:42:12.842Z,38.61
2022-10-16T10:45:16.958Z,37.88
2022-10-16T10:47:46.435Z,38.70
2022-10-16T10:50:48.345Z,38.90
2022-10-16T10:53:33.715Z,39.04
2022-10-16T10:56:17.705Z,38.31
2022-10-16T10:59:06.394Z,38.25
2022-10-16T11:01:41.864Z,38.22
2022-10-16T11:04:59.937Z,38.88
2022-10-16T11:07:31.209Z,38.18
2022-10-16T11:10:10.338Z,36.68
2022-10-16T11:12:43.339Z,36.71
2022-10-16T11:15:18.292Z,38.13
2022-10-16T11:17:55.076Z,38.11
2022-10-16T11:20:30.162Z,37.07
2022-10-16T11:22:59.615Z,35.88
2022-10-16T11:25:31.918Z,35.66
2022-10-16T11:28:16.325Z,37.19
2022-10-16T11:31:09.124Z,35.01
2022-10-16T11:33:48.087Z,34.52
2022-10-16T11:36:34.808Z,34.77
2022-10-16T11:39:26.277Z,35.02
2022-10-16T11:41:57.102Z,34.13
2022-10-16T11:44:54.705Z,34.23
2022-10-16T11:48:03.356Z,33.72
2022-10-16T11:50:33.048Z,33.53
2022-10-16T11:53:06.584Z,32.54
2022-10-16T11:55:41.633Z,32.90
2022-10-16T11:58:16.691Z,33.19
2022-10-16T12:01:11.670Z,33.25
2022-10-16T12:03:50.673Z,32.96
2022-10-16T12:06:53.397Z,32.77
2022-10-16T12:09:26.154Z,32.94
2022-10-16T12:11:53.040Z,33.41
2022-10-16T12:14:21.471Z,35.43
2022-10-16T12:17:24.068Z,36.08
2022-10-16T12:20:31.771Z,34.43
2022-10-16T12:23:06.854Z,33.38
2022-10-16T12:25:40.201Z,33.25
2022-10-16T12:28:20.330Z,33.65
2022-10-16T12:31:04.490Z,34.61
2022-10-16T12:33:32.189Z,35.48
2022-10-16T12:36:03.163Z,34.18
2022-10-16T12:38:50.483Z,34.86
2022-10-16T12:41:38.779Z,36.46
2022-10-16T12:44:05.503Z,35.35
2022-10-16T12:46:34.101Z,34.39
2022-10-16T12:49:23.153Z,34.26
2022-10-16T12:51:49.879Z,33.81
2022-10-16T12:54:36.430Z,35.38
2022-10-16T12:57:24.681Z,36.87
2022-10-16T13:00:23.175Z,36.63
2022-10-16T13:03:10.323Z,37.09
2022-10-16T13:06:14.953Z,36.10
2022-10-16T13:09:20.884Z,36.54
2022-10-16T13:12:18.234Z,35.73
2022-10-16T13:15:10.651Z,35.01
2022-10-16T13:17:49.412Z,35.41
2022-10-16T13:20:25.064Z,35.44
2022-10-16T13:23:30.275Z,34.65
2022-10-16T13:26:05.659Z,35.31
2022-10-16T13:28:34.465Z,36.04
2022-10-16T13:31:02.677Z,36.13
2022-10-16T13:33:42.453Z,36.19
2022-10-16T13:36:20.909Z,35.66
2022-10-16T13:38:47.650Z,35.43
2022-10-16T13:41:18.068Z,35.79
2022-10-16T13:43:48.500Z,35.61
2022-10-16T13:46:19.790Z,35.01
2022-10-16T13:49:01.605Z,35.19
2022-10-16T13:51:30.455Z,34.74
2022-10-16T13:53:58.551Z,34.88
2022-10-16T13:56:33.761Z,34.90
2022-10-16T13:59:01.710Z,34.40
2022-10-16T14:01:34.585Z,34.73
2022-10-16T14:04:10.198Z,34.64
2022-10-16T14:06:37.971Z,34.58
2022-10-16T14:09:12.875Z,35.15
2022-10-16T14:11:52.889Z,35.07
2022-10-16T14:14:23.299Z,35.68
2022-10-16T14:16:50.148Z,36.24
2022-10-16T14:19:26.827Z,37.20
2022-10-16T14:21:54.045Z,35.86
2022-10-16T14:24:34.557Z,35.75
2022-10-16T14:27:02.172Z,35.60
2022-10-16T14:29:32.541Z,34.26
2022-10-16T14:32:02.497Z,35.02
2022-10-16T14:34:37.591Z,34.90
2022-10-16T14:37:27.680Z,35.25
2022-10-16T14:39:56.142Z,35.28
2022-10-16T14:42:25.706Z,35.12
2022-10-16T14:44:54.161Z,34.66
2022-10-16T14:47:26.405Z,34.45
2022-10-16T14:50:00.062Z,34.81
2022-10-16T14:52:29.016Z,35.48
2022-10-16T14:54:58.065Z,34.84
2022-10-16T14:57:29.118Z,35.04
2022-10-16T14:59:57.182Z,35.98
2022-10-16T15:02:34.043Z,35.73
2022-10-16T15:05:12.828Z,36.02
2022-10-16T15:07:39.440Z,34.85
2022-10-16T15:10:06.220Z,34.75
2022-10-16T15:12:33.347Z,34.16
2022-10-16T15:14:59.945Z,34.81
2022-10-16T15:17:26.837Z,35.81
2022-10-16T15:19:53.660Z,35.66
2022-10-16T15:22:20.228Z,35.74
2022-10-16T15:24:46.818Z,35.74
2022-10-16T15:27:13.529Z,36.54
2022-10-16T15:29:40.127Z,37.32
2022-10-16T15:32:06.678Z,37.23
2022-10-16T15:34:33.362Z,38.06
2022-10-16T15:37:04.161Z,38.14
2022-10-16T15:39:30.757Z,38.78
2022-10-16T15:41:57.330Z,39.71
2022-10-16T15:44:26.524Z,39.22
2022-10-16T15:46:56.373Z,39.42
2022-10-16T15:49:23.275Z,39.56
2022-10-16T15:51:49.859Z,39.93
2022-10-16T15:54:16.501Z,40.17
2022-10-16T15:56:43.086Z,39.88
2022-10-16T15:59:09.787Z,39.73
2022-10-16T16:01:36.905Z,40.12
2022-10-16T16:04:15.476Z,39.94
2022-10-16T16:06:52.193Z,40.40
2022-10-16T16:09:18.824Z,40.60
2022-10-16T16:11:45.455Z,40.25
2022-10-16T16:14:14.283Z,40.56
2022-10-16T16:16:40.976Z,41.13
2022-10-16T16:19:11.403Z,40.99
2022-10-16T16:21:38.831Z,40.81
2022-10-16T16:24:09.330Z,40.82
2022-10-16T16:26:40.478Z,41.04
2022-10-16T16:29:08.161Z,41.08
2022-10-16T16:31:35.862Z,41.08
2022-10-16T16:34:02.926Z,41.23
2022-10-16T16:36:29.922Z,41.67
2022-10-16T16:38:58.024Z,41.54
2022-10-16T16:41:27.478Z,42.02
2022-10-16T16:43:55.511Z,42.79
2022-10-16T16:46:23.428Z,42.75
2022-10-16T16:48:56.362Z,43.07
2022-10-16T16:51:23.049Z,43.13
2022-10-16T16:53:52.218Z,43.14
2022-10-16T16:56:20.046Z,43.28
2022-10-16T16:58:47.755Z,43.27
2022-10-16T17:01:19.737Z,43.38
2022-10-16T17:03:47.550Z,43.61
2022-10-16T17:06:15.400Z,43.70
2022-10-16T17:08:42.968Z,44.12
2022-10-16T17:11:21.327Z,44.20
2022-10-16T17:13:51.261Z,44.22
2022-10-16T17:16:23.743Z,44.84
2022-10-16T17:18:50.486Z,44.68
2022-10-16T17:21:17.205Z,45.07
2022-10-16T17:23:43.859Z,44.92
2022-10-16T17:26:17.403Z,45.17
2022-10-16T17:28:44.852Z,45.17
2022-10-16T17:31:19.892Z,45.09
2022-10-16T17:33:47.403Z,44.88
2022-10-16T17:36:15.169Z,45.23
2022-10-16T17:38:42.666Z,45.77
2022-10-16T17:41:24.021Z,45.97
2022-10-16T17:43:52.042Z,46.16
2022-10-16T17:46:21.506Z,46.26
2022-10-16T17:48:51.210Z,46.41
2022-10-16T17:51:20.309Z,46.61
2022-10-16T17:53:51.866Z,46.78
2022-10-16T17:56:19.192Z,46.48
2022-10-16T17:58:52.315Z,46.37
2022-10-16T18:01:20.682Z,46.45
2022-10-16T18:04:00.088Z,46.75
2022-10-16T18:06:28.040Z,46.55
2022-10-16T18:08:57.744Z,46.35
2022-10-16T18:11:25.094Z,46.60
2022-10-16T18:13:53.355Z,46.89
2022-10-16T18:16:20.338Z,47.24
2022-10-16T18:18:48.169Z,48.07
2022-10-16T18:21:17.887Z,49.33
2022-10-16T18:23:50.828Z,49.17
2022-10-16T18:26:20.179Z,48.58
2022-10-16T18:28:46.964Z,49.09
2022-10-16T18:31:16.626Z,49.43
2022-10-16T18:33:50.600Z,48.95
2022-10-16T18:36:19.949Z,48.53
2022-10-16T18:38:46.713Z,48.11
2022-10-16T18:41:13.465Z,47.95
2022-10-16T18:43:40.423Z,47.76
2022-10-16T18:46:12.249Z,48.15
2022-10-16T18:48:40.393Z,48.76
2022-10-16T18:51:16.174Z,48.17
2022-10-16T18:53:44.782Z,48.35
2022-10-16T18:56:13.058Z,48.04
2022-10-16T18:58:41.543Z,47.94
2022-10-16T19:01:11.210Z,48.07
2022-10-16T19:03:43.184Z,48.28
2022-10-16T19:06:13.894Z,49.52
2022-10-16T19:08:41.357Z,50.43
2022-10-16T19:11:12.699Z,50.73
2022-10-16T19:13:39.455Z,50.48
2022-10-16T19:16:27.037Z,50.33
2022-10-16T19:18:55.983Z,49.88
2022-10-16T19:21:24.544Z,49.76
2022-10-16T19:23:53.100Z,49.51
2022-10-16T19:26:21.373Z,49.33
2022-10-16T19:28:48.461Z,49.09
2022-10-16T19:31:18.535Z,48.96
2022-10-16T19:33:45.841Z,48.69
2022-10-16T19:36:17.263Z,48.81
2022-10-16T19:38:45.472Z,49.18
2022-10-16T19:41:13.579Z,49.09
2022-10-16T19:43:41.035Z,48.83
2022-10-16T19:46:14.092Z,49.02
2022-10-16T19:48:41.565Z,49.29
2022-10-16T19:51:11.786Z,49.55
2022-10-16T19:53:38.406Z,49.80
2022-10-16T19:56:32.168Z,49.68
2022-10-16T19:59:00.136Z,49.79
2022-10-16T20:01:28.941Z,49.93
2022-10-16T20:03:56.165Z,50.37
2022-10-16T20:06:23.286Z,51.08
2022-10-16T20:08:52.051Z,51.11
2022-10-16T20:11:22.091Z,50.65
2022-10-16T20:13:49.354Z,50.57
2022-10-16T20:16:19.091Z,50.77
2022-10-16T20:18:48.441Z,50.86
2022-10-16T20:21:20.892Z,51.30
2022-10-16T20:23:48.998Z,51.12
2022-10-16T20:26:16.558Z,51.18
2022-10-16T20:28:44.003Z,51.82
2022-10-16T20:31:17.538Z,52.06
2022-10-16T20:33:45.022Z,51.40
2022-10-16T20:36:16.139Z,51.08
2022-10-16T20:38:43.430Z,50.66
2022-10-16T20:41:11.109Z,50.89
2022-10-16T20:46:17.020Z,50.56
2022-10-16T20:48:44.220Z,50.84
2022-10-16T20:51:26.136Z,50.75
2022-10-16T20:53:55.780Z,51.33
2022-10-16T20:56:22.969Z,51.76
2022-10-16T20:58:49.831Z,51.80
2022-10-16T21:01:19.048Z,51.68
2022-10-16T21:03:51.694Z,51.85
2022-10-16T21:06:18.367Z,51.97
2022-10-16T21:08:45.296Z,51.81
2022-10-16T21:11:19.122Z,51.59
2022-10-16T21:13:45.995Z,51.87
2022-10-16T21:16:14.171Z,52.01
2022-10-16T21:18:44.615Z,52.53
2022-10-16T21:21:20.728Z,52.29
2022-10-16T21:23:49.277Z,52.43
2022-10-16T21:26:18.306Z,51.45
2022-10-16T21:28:45.247Z,51.60
2022-10-16T21:31:24.464Z,51.54
2022-10-16T21:33:52.798Z,51.77
2022-10-16T21:36:22.609Z,51.34
2022-10-16T21:38:49.714Z,51.50
2022-10-16T21:41:25.147Z,52.52
2022-10-16T21:43:52.387Z,52.48
2022-10-16T21:46:21.475Z,52.48
2022-10-16T21:48:48.548Z,53.09
2022-10-16T21:51:15.658Z,53.38
2022-10-16T21:53:42.253Z,53.83
2022-10-16T21:56:14.656Z,53.50
2022-10-16T21:58:41.817Z,53.24
2022-10-16T22:01:09.949Z,53.07
2022-10-16T22:03:36.705Z,53.97
2022-10-16T22:06:08.447Z,53.97
2022-10-16T22:08:36.550Z,54.09
2022-10-16T22:11:11.678Z,53.80
2022-10-16T22:13:39.043Z,53.70
2022-10-16T22:16:06.189Z,53.97
2022-10-16T22:18:33.520Z,55.20
2022-10-16T22:21:00.212Z,55.29
2022-10-16T22:23:27.125Z,55.36
2022-10-16T22:26:08.888Z,55.17
2022-10-16T22:28:35.874Z,54.93
2022-10-16T22:31:07.780Z,54.56
2022-10-16T22:36:08.363Z,54.12
2022-10-16T22:38:36.413Z,53.67
2022-10-16T22:41:11.691Z,54.03
2022-10-16T22:43:41.407Z,54.94
2022-10-16T22:46:09.913Z,54.13
2022-10-16T22:48:37.425Z,53.98
2022-10-16T22:51:05.800Z,55.10
2022-10-16T22:53:33.346Z,54.97
2022-10-16T22:56:00.119Z,55.86
2022-10-16T22:58:27.093Z,55.39
2022-10-16T23:00:53.945Z,55.67
2022-10-16T23:03:20.751Z,55.56
2022-10-16T23:05:47.397Z,55.94
2022-10-16T23:08:14.277Z,56.69
2022-10-16T23:10:43.769Z,56.08
2022-10-16T23:13:11.120Z,56.29
2022-10-16T23:15:42.968Z,55.82
2022-10-16T23:18:10.385Z,56.66
2022-10-16T23:20:40.616Z,56.76
2022-10-16T23:23:07.917Z,56.32
2022-10-16T23:25:34.882Z,56.86
2022-10-16T23:28:02.895Z,56.79
2022-10-16T23:30:29.658Z,56.46
2022-10-16T23:32:56.310Z,56.11
2022-10-16T23:35:22.928Z,56.19
2022-10-16T23:37:49.667Z,55.71
2022-10-16T23:40:16.331Z,55.45
2022-10-16T23:42:42.995Z,56.28
2022-10-16T23:45:09.581Z,56.67
2022-10-16T23:47:36.153Z,56.96
2022-10-16T23:50:02.802Z,55.87
2022-10-16T23:52:29.506Z,55.80
2022-10-16T23:54:56.053Z,56.34
2022-10-16T23:57:22.634Z,56.69
2022-10-16T23:59:49.254Z,56.37
